createdAt,value
2022-11-20T00:01:31.401Z,1.33
2022-11-20T00:03:32.729Z,1.42
2022-11-20T00:05:42.960Z,1.40
2022-11-20T00:08:25.738Z,1.08
2022-11-20T00:10:30.724Z,1.20
2022-11-20T00:12:35.144Z,1.10
2022-11-20T00:14:39.333Z,1.20
2022-11-20T00:16:52.852Z,1.15
2022-11-20T00:18:54.712Z,1.33
2022-11-20T00:21:06.483Z,1.10
2022-11-20T00:23:08.010Z,1.30
2022-11-20T00:25:09.500Z,1.17
2022-11-20T00:27:10.842Z,1.05
2022-11-20T00:29:12.253Z,1.08
2022-11-20T00:31:15.048Z,1.00
2022-11-20T00:33:19.410Z,1.15
2022-11-20T00:35:26.565Z,0.88
2022-11-20T00:37:39.949Z,1.00
2022-11-20T00:39:48.562Z,0.90
2022-11-20T00:41:56.076Z,0.98
2022-11-20T00:43:57.472Z,1.05
2022-11-20T00:45:58.805Z,1.00
2022-11-20T00:48:00.147Z,1.00
2022-11-20T00:50:07.466Z,0.82
2022-11-20T00:52:08.935Z,0.85
2022-11-20T00:54:19.443Z,1.00
2022-11-20T00:56:21.049Z,1.15
2022-11-20T00:58:35.749Z,0.80
2022-11-20T01:00:44.457Z,1.05
2022-11-20T01:02:51.840Z,1.00
2022-11-20T01:04:56.074Z,1.10
2022-11-20T01:06:59.978Z,1.42
2022-11-20T01:09:11.987Z,1.20
2022-11-20T01:11:17.440Z,1.00
2022-11-20T01:16:03.831Z,1.10
2022-11-20T01:18:06.134Z,1.10
2022-11-20T01:20:10.929Z,1.02
2022-11-20T01:24:42.870Z,1.15
2022-11-20T01:26:51.032Z,0.95
2022-11-20T01:29:01.632Z,0.98
2022-11-20T01:31:18.409Z,1.00
2022-11-20T01:33:37.019Z,1.00
2022-11-20T01:35:38.352Z,1.00
2022-11-20T01:37:42.430Z,0.80
2022-11-20T01:39:49.341Z,1.17
2022-11-20T01:42:18.983Z,1.02
2022-11-20T01:47:01.813Z,1.17
2022-11-20T01:49:32.553Z,1.25
2022-11-20T01:52:01.867Z,1.38
2022-11-20T01:54:19.569Z,1.00
2022-11-20T01:56:32.118Z,0.90
2022-11-20T01:58:59.245Z,1.10
2022-11-20T02:01:06.427Z,1.13
2022-11-20T02:03:20.634Z,1.13
2022-11-20T02:05:32.062Z,1.15
2022-11-20T02:07:41.698Z,1.17
2022-11-20T02:09:48.883Z,0.93
2022-11-20T02:11:50.247Z,1.10
2022-11-20T02:13:51.686Z,0.90
2022-11-20T02:16:02.317Z,1.00
2022-11-20T02:18:10.741Z,0.95
2022-11-20T02:20:12.793Z,1.20
2022-11-20T02:22:22.412Z,1.00
2022-11-20T02:24:30.945Z,1.10
2022-11-20T02:26:57.299Z,1.10
2022-11-20T02:29:07.648Z,0.95
2022-11-20T02:31:08.968Z,0.98
2022-11-20T02:33:10.291Z,1.35
2022-11-20T02:35:20.691Z,1.10
2022-11-20T02:37:33.469Z,1.45
2022-11-20T02:39:37.693Z,1.10
2022-11-20T02:41:39.416Z,1.08
2022-11-20T02:43:40.791Z,1.00
2022-11-20T02:48:04.738Z,1.08
2022-11-20T02:50:06.620Z,1.13
2022-11-20T02:52:13.905Z,1.38
2022-11-20T02:54:21.333Z,0.98
2022-11-20T02:56:22.701Z,1.05
2022-11-20T02:58:33.208Z,1.05
2022-11-20T03:00:43.869Z,1.20
2022-11-20T03:02:51.051Z,1.42
2022-11-20T03:04:59.736Z,1.35
2022-11-20T03:07:08.548Z,1.40
2022-11-20T03:09:13.201Z,1.20
2022-11-20T03:11:20.417Z,1.30
2022-11-20T03:13:27.396Z,1.40
2022-11-20T03:15:29.007Z,1.30
2022-11-20T03:17:39.636Z,1.40
2022-11-20T03:19:40.981Z,1.65
2022-11-20T03:21:49.726Z,1.48
2022-11-20T03:24:05.553Z,1.50
2022-11-20T03:26:20.102Z,1.70
2022-11-20T03:28:30.357Z,1.58
2022-11-20T03:30:31.707Z,4.10
2022-11-20T03:32:35.804Z,4.95
2022-11-20T03:35:02.881Z,3.90
2022-11-20T03:37:04.230Z,3.65
2022-11-20T03:39:14.814Z,2.10
2022-11-20T03:41:29.600Z,1.38
2022-11-20T03:43:31.069Z,1.55
2022-11-20T03:45:39.632Z,1.17
2022-11-20T03:47:44.185Z,1.27
2022-11-20T03:49:45.531Z,1.20
2022-11-20T03:51:46.869Z,0.90
2022-11-20T03:53:57.638Z,1.00
2022-11-20T03:55:58.996Z,0.90
2022-11-20T03:58:00.317Z,1.00
2022-11-20T04:00:05.314Z,1.15
2022-11-20T04:02:16.324Z,0.90
2022-11-20T04:04:20.761Z,0.85
2022-11-20T04:06:26.461Z,0.85
2022-11-20T04:08:33.791Z,0.90
2022-11-20T04:10:44.268Z,1.08
2022-11-20T04:13:04.070Z,0.88
2022-11-20T04:15:11.291Z,0.90
2022-11-20T04:17:12.617Z,1.00
2022-11-20T04:19:20.476Z,0.90
2022-11-20T04:21:23.702Z,1.10
2022-11-20T04:23:28.681Z,0.88
2022-11-20T04:25:37.151Z,0.90
2022-11-20T04:27:45.699Z,1.20
2022-11-20T04:29:47.092Z,0.90
2022-11-20T04:31:51.188Z,0.80
2022-11-20T04:33:55.734Z,0.70
2022-11-20T04:36:00.477Z,0.80
2022-11-20T04:38:05.185Z,0.80
2022-11-20T04:40:06.689Z,0.80
2022-11-20T04:42:35.785Z,0.70
2022-11-20T04:44:39.875Z,1.10
2022-11-20T04:46:44.238Z,0.90
2022-11-20T04:48:45.589Z,0.70
2022-11-20T04:50:56.251Z,0.80
2022-11-20T04:52:57.608Z,0.80
2022-11-20T04:55:05.125Z,0.93
2022-11-20T04:57:14.746Z,1.00
2022-11-20T04:59:16.418Z,1.00
2022-11-20T05:01:22.149Z,1.10
2022-11-20T05:03:29.569Z,1.00
2022-11-20T05:05:35.082Z,1.00
2022-11-20T05:07:42.385Z,1.30
2022-11-20T05:09:43.778Z,0.95
2022-11-20T05:11:57.548Z,1.13
2022-11-20T05:13:59.705Z,1.00
2022-11-20T05:16:05.076Z,0.90
2022-11-20T05:18:15.471Z,0.88
2022-11-20T05:20:17.357Z,0.77
2022-11-20T05:22:18.670Z,0.85
2022-11-20T05:24:20.121Z,0.80
2022-11-20T05:28:45.271Z,0.82
2022-11-20T05:31:19.597Z,0.85
2022-11-20T05:33:14.879Z,0.93
2022-11-20T05:35:16.284Z,1.08
2022-11-20T05:37:17.645Z,1.00
2022-11-20T05:39:24.867Z,0.95
2022-11-20T05:41:38.424Z,0.77
2022-11-20T05:43:43.571Z,1.02
2022-11-20T05:45:54.853Z,1.10
2022-11-20T05:48:06.556Z,1.02
2022-11-20T05:50:17.897Z,0.80
2022-11-20T05:52:25.077Z,1.05
2022-11-20T05:54:29.301Z,0.73
2022-11-20T05:56:33.606Z,1.00
2022-11-20T05:58:37.888Z,0.80
2022-11-20T06:00:45.446Z,0.70
2022-11-20T06:02:53.971Z,0.73
2022-11-20T06:05:01.677Z,0.60
2022-11-20T06:07:10.445Z,0.85
2022-11-20T06:09:11.817Z,0.77
2022-11-20T06:11:14.128Z,0.70
2022-11-20T06:13:21.396Z,0.70
2022-11-20T06:15:25.859Z,0.80
2022-11-20T06:17:41.520Z,0.80
2022-11-20T06:19:42.877Z,0.70
2022-11-20T06:21:44.248Z,0.75
2022-11-20T06:23:55.704Z,0.60
2022-11-20T06:25:57.034Z,0.70
2022-11-20T06:28:10.582Z,0.70
2022-11-20T06:30:18.156Z,0.50
2022-11-20T06:32:27.430Z,0.70
2022-11-20T06:34:36.004Z,0.65
2022-11-20T06:36:40.417Z,0.60
2022-11-20T06:38:42.949Z,0.75
2022-11-20T06:40:48.183Z,0.70
2022-11-20T06:42:50.610Z,0.75
2022-11-20T06:44:51.973Z,0.65
2022-11-20T06:49:35.322Z,0.88
2022-11-20T06:51:39.736Z,0.70
2022-11-20T06:53:41.263Z,0.80
2022-11-20T06:55:48.947Z,0.60
2022-11-20T06:57:54.796Z,0.68
2022-11-20T06:59:57.291Z,0.75
2022-11-20T07:02:04.608Z,0.70
2022-11-20T07:04:18.304Z,0.70
2022-11-20T07:06:19.662Z,0.90
2022-11-20T07:08:50.072Z,1.10
2022-11-20T07:10:57.983Z,0.80
2022-11-20T07:12:59.361Z,1.30
2022-11-20T07:15:07.402Z,1.20
2022-11-20T07:17:12.427Z,1.00
2022-11-20T07:19:13.836Z,1.00
2022-11-20T07:21:35.739Z,1.00
2022-11-20T07:23:37.289Z,1.00
2022-11-20T07:26:09.403Z,0.70
2022-11-20T07:28:19.984Z,0.90
2022-11-20T07:35:02.712Z,1.20
2022-11-20T07:44:58.733Z,0.77
2022-11-20T07:47:05.969Z,1.00
2022-11-20T07:49:07.350Z,0.80
2022-11-20T07:51:08.826Z,0.85
2022-11-20T07:56:04.388Z,0.80
2022-11-20T07:58:05.809Z,1.10
2022-11-20T08:00:18.268Z,0.98
2022-11-20T08:02:19.654Z,1.02
2022-11-20T08:07:14.240Z,0.90
2022-11-20T08:09:18.725Z,0.90
2022-11-20T08:11:45.147Z,0.80
2022-11-20T08:14:20.063Z,0.77
2022-11-20T08:16:21.683Z,0.70
2022-11-20T08:20:47.243Z,0.95
2022-11-20T08:22:48.609Z,0.93
2022-11-20T08:24:56.150Z,1.00
2022-11-20T08:27:08.146Z,1.05
2022-11-20T08:29:09.638Z,0.98
2022-11-20T08:31:42.012Z,0.88
2022-11-20T08:34:06.320Z,0.85
2022-11-20T08:36:16.592Z,1.08
2022-11-20T08:41:03.660Z,1.10
2022-11-20T08:43:17.306Z,1.20
2022-11-20T08:45:26.489Z,0.85
2022-11-20T08:47:46.467Z,1.20
2022-11-20T08:50:00.700Z,1.00
2022-11-20T08:52:11.329Z,1.10
2022-11-20T08:54:24.865Z,0.90
2022-11-20T08:56:32.704Z,1.10
2022-11-20T09:01:03.901Z,1.00
2022-11-20T09:08:07.278Z,0.90
2022-11-20T09:17:38.849Z,1.00
2022-11-20T09:19:41.102Z,1.20
2022-11-20T09:21:45.543Z,0.80
2022-11-20T09:24:00.383Z,0.98
2022-11-20T09:26:10.505Z,1.00
2022-11-20T09:28:19.481Z,0.85
2022-11-20T09:30:28.552Z,0.98
2022-11-20T09:32:33.023Z,0.90
2022-11-20T09:34:41.576Z,1.15
2022-11-20T09:36:49.092Z,1.00
2022-11-20T09:38:50.645Z,1.00
2022-11-20T09:41:12.263Z,0.90
2022-11-20T09:43:37.090Z,1.00
2022-11-20T09:46:00.492Z,1.20
2022-11-20T09:48:20.407Z,1.50
2022-11-20T09:50:28.387Z,1.00
2022-11-20T09:52:56.231Z,0.88
2022-11-20T09:55:12.339Z,1.10
2022-11-20T09:57:22.888Z,0.90
2022-11-20T09:59:36.401Z,1.00
2022-11-20T10:04:12.219Z,1.00
2022-11-20T10:06:20.587Z,1.25
2022-11-20T10:08:41.547Z,1.33
2022-11-20T10:13:04.090Z,1.60
2022-11-20T10:15:21.100Z,1.88
2022-11-20T10:17:53.308Z,1.95
2022-11-20T10:20:04.997Z,1.50
2022-11-20T10:22:26.001Z,2.10
2022-11-20T10:26:46.879Z,2.88
2022-11-20T10:29:23.679Z,2.78
2022-11-20T10:32:06.202Z,3.10
2022-11-20T10:34:22.748Z,1.77
2022-11-20T10:36:51.038Z,1.88
2022-11-20T10:39:19.723Z,1.75
2022-11-20T10:44:43.714Z,2.08
2022-11-20T10:46:45.779Z,1.50
2022-11-20T10:51:36.086Z,1.08
2022-11-20T10:53:40.223Z,1.48
2022-11-20T10:56:18.648Z,1.40
2022-11-20T10:58:48.845Z,1.40
2022-11-20T11:01:08.606Z,1.10
2022-11-20T11:03:25.237Z,1.33
2022-11-20T11:05:29.464Z,1.45
2022-11-20T11:07:55.869Z,1.27
2022-11-20T11:10:21.820Z,1.70
2022-11-20T11:12:29.776Z,1.60
2022-11-20T11:16:58.907Z,1.23
2022-11-20T11:19:18.715Z,1.25
2022-11-20T11:21:29.238Z,1.20
2022-11-20T11:23:35.551Z,1.05
2022-11-20T11:25:52.809Z,1.08
2022-11-20T11:30:34.395Z,1.20
2022-11-20T11:32:36.331Z,1.30
2022-11-20T11:35:02.798Z,1.50
2022-11-20T11:37:23.790Z,1.00
2022-11-20T11:41:52.426Z,0.80
2022-11-20T11:44:19.975Z,1.55
2022-11-20T11:46:21.367Z,1.10
2022-11-20T11:48:28.671Z,1.00
2022-11-20T11:55:28.454Z,0.95
2022-11-20T11:58:03.016Z,0.90
2022-11-20T12:00:21.439Z,0.90
2022-11-20T12:02:47.522Z,0.90
2022-11-20T12:04:56.062Z,1.02
2022-11-20T12:13:01.969Z,0.90
2022-11-20T12:15:03.583Z,1.20
2022-11-20T12:17:22.216Z,0.65
2022-11-20T12:19:24.134Z,0.82
2022-11-20T12:21:44.114Z,0.70
2022-11-20T12:24:04.290Z,0.73
2022-11-20T12:29:21.796Z,0.70
2022-11-20T12:31:29.700Z,0.65
2022-11-20T12:33:50.074Z,0.70
2022-11-20T12:36:18.950Z,0.68
2022-11-20T12:38:32.555Z,0.80
2022-11-20T12:40:55.407Z,1.73
2022-11-20T12:46:32.604Z,1.17
2022-11-20T12:51:14.951Z,1.10
2022-11-20T12:53:46.947Z,1.20
2022-11-20T12:55:58.303Z,1.20
2022-11-20T12:58:24.355Z,1.02
2022-11-20T13:00:35.609Z,1.17
2022-11-20T13:02:36.977Z,1.10
2022-11-20T13:05:09.222Z,1.10
2022-11-20T13:07:17.269Z,1.30
2022-11-20T13:09:26.274Z,1.42
2022-11-20T13:12:02.933Z,1.05
2022-11-20T13:14:37.529Z,1.20
2022-11-20T13:19:23.850Z,1.00
2022-11-20T13:24:32.615Z,1.00
2022-11-20T13:26:37.055Z,1.20
2022-11-20T13:28:38.628Z,1.00
2022-11-20T13:31:16.765Z,1.02
2022-11-20T13:33:55.671Z,1.20
2022-11-20T13:36:04.755Z,1.23
2022-11-20T13:38:08.006Z,1.60
2022-11-20T13:40:12.122Z,1.05
2022-11-20T13:42:16.552Z,1.10
2022-11-20T13:44:38.037Z,0.93
2022-11-20T13:47:01.074Z,0.65
2022-11-20T13:52:22.213Z,0.60
2022-11-20T13:54:39.033Z,0.60
2022-11-20T13:56:51.597Z,0.70
2022-11-20T13:59:20.899Z,0.60
2022-11-20T14:01:32.450Z,0.90
2022-11-20T14:06:05.393Z,1.60
2022-11-20T14:08:24.498Z,1.17
2022-11-20T14:10:40.972Z,1.25
2022-11-20T14:15:00.841Z,0.90
2022-11-20T14:17:11.960Z,0.95
2022-11-20T14:19:29.710Z,0.80
2022-11-20T14:21:31.189Z,0.65
2022-11-20T14:26:15.836Z,0.68
2022-11-20T14:31:16.890Z,0.70
2022-11-20T14:33:40.026Z,0.60
2022-11-20T14:35:56.593Z,0.80
2022-11-20T14:37:58.353Z,0.80
2022-11-20T14:40:18.536Z,0.60
2022-11-20T14:42:24.116Z,0.90
2022-11-20T14:47:03.702Z,0.90
2022-11-20T14:51:35.880Z,0.90
2022-11-20T14:56:39.886Z,1.10
2022-11-20T14:59:05.094Z,0.63
2022-11-20T15:01:34.616Z,0.70
2022-11-20T15:03:42.294Z,0.60
2022-11-20T15:05:48.921Z,0.50
2022-11-20T15:08:08.518Z,0.80
2022-11-20T15:10:35.371Z,1.20
2022-11-20T15:13:26.775Z,1.27
2022-11-20T15:15:56.778Z,1.15
2022-11-20T15:18:15.728Z,1.00
2022-11-20T15:20:18.338Z,0.90
2022-11-20T15:22:44.466Z,1.23
2022-11-20T15:24:55.024Z,1.20
2022-11-20T15:27:21.369Z,0.98
2022-11-20T15:29:32.591Z,1.08
2022-11-20T15:34:17.883Z,1.27
2022-11-20T15:36:19.261Z,0.98
2022-11-20T15:38:48.374Z,0.88
2022-11-20T15:40:49.857Z,0.90
2022-11-20T15:46:16.218Z,1.10
2022-11-20T15:51:43.755Z,1.40
2022-11-20T15:53:45.217Z,1.02
2022-11-20T15:55:49.888Z,1.20
2022-11-20T15:57:57.858Z,1.77
2022-11-20T15:59:59.300Z,1.30
2022-11-20T16:02:22.695Z,1.80
2022-11-20T16:06:56.707Z,1.30
2022-11-20T16:09:10.654Z,1.65
2022-11-20T16:11:36.465Z,1.50
2022-11-20T16:13:59.323Z,1.02
2022-11-20T16:16:39.252Z,1.90
2022-11-20T16:21:32.616Z,1.60
2022-11-20T16:23:39.852Z,1.58
2022-11-20T16:25:41.270Z,1.75
2022-11-20T16:27:42.646Z,1.83
2022-11-20T16:29:55.650Z,2.70
2022-11-20T16:31:57.573Z,2.08
2022-11-20T16:34:12.318Z,1.90
2022-11-20T16:36:22.267Z,1.70
2022-11-20T16:38:33.480Z,1.70
2022-11-20T16:40:43.936Z,1.65
2022-11-20T16:45:06.062Z,1.50
2022-11-20T16:47:07.767Z,1.10
2022-11-20T16:50:17.538Z,1.90
2022-11-20T16:51:57.265Z,1.33
2022-11-20T16:54:05.572Z,1.50
2022-11-20T16:56:32.665Z,1.30
2022-11-20T16:58:34.068Z,1.30
2022-11-20T17:00:44.494Z,1.20
2022-11-20T17:02:55.434Z,1.40
2022-11-20T17:05:12.164Z,1.65
2022-11-20T17:07:13.671Z,2.05
2022-11-20T17:09:21.180Z,2.30
2022-11-20T17:11:42.145Z,2.05
2022-11-20T17:15:52.287Z,1.83
2022-11-20T17:17:53.612Z,2.28
2022-11-20T17:19:57.979Z,2.08
2022-11-20T17:22:20.929Z,1.90
2022-11-20T17:24:24.337Z,1.60
2022-11-20T17:29:07.875Z,5.28
2022-11-20T17:31:19.620Z,2.15
2022-11-20T17:33:29.936Z,1.70
2022-11-20T17:35:36.006Z,1.75
2022-11-20T17:37:50.436Z,1.50
2022-11-20T17:39:57.463Z,1.40
2022-11-20T17:42:20.388Z,1.20
2022-11-20T17:44:31.337Z,1.20
2022-11-20T17:46:41.393Z,1.40
2022-11-20T17:48:49.309Z,1.30
2022-11-20T17:51:13.496Z,1.20
2022-11-20T17:53:18.645Z,1.10
2022-11-20T17:56:04.441Z,1.10
2022-11-20T17:58:08.907Z,1.15
2022-11-20T18:00:18.299Z,0.90
2022-11-20T18:02:26.038Z,0.50
2022-11-20T18:06:53.869Z,0.70
2022-11-20T18:09:20.826Z,0.80
2022-11-20T18:11:38.302Z,0.40
2022-11-20T18:14:05.647Z,0.40
2022-11-20T18:16:07.654Z,0.50
2022-11-20T18:18:23.599Z,0.50
2022-11-20T18:20:43.583Z,0.60
2022-11-20T18:22:48.608Z,0.63
2022-11-20T18:24:59.631Z,0.60
2022-11-20T18:27:05.631Z,0.80
2022-11-20T18:29:07.516Z,0.88
2022-11-20T18:31:18.583Z,1.00
2022-11-20T18:33:28.145Z,0.75
2022-11-20T18:35:29.782Z,1.00
2022-11-20T18:37:34.311Z,0.77
2022-11-20T18:39:49.868Z,0.70
2022-11-20T18:42:11.655Z,0.77
2022-11-20T18:44:48.146Z,1.00
2022-11-20T18:46:50.370Z,1.00
2022-11-20T18:48:59.159Z,0.80
2022-11-20T18:51:16.820Z,0.90
2022-11-20T18:53:19.193Z,0.75
2022-11-20T18:55:26.702Z,0.85
2022-11-20T18:57:28.777Z,0.70
2022-11-20T18:59:44.289Z,0.73
2022-11-20T19:01:51.618Z,0.80
2022-11-20T19:03:54.179Z,0.82
2022-11-20T19:05:59.644Z,0.88
2022-11-20T19:08:10.082Z,0.98
2022-11-20T19:10:11.551Z,0.80
2022-11-20T19:12:15.957Z,0.88
2022-11-20T19:14:19.520Z,0.80
2022-11-20T19:16:26.750Z,0.70
2022-11-20T19:18:36.552Z,0.80
2022-11-20T19:20:37.932Z,0.68
2022-11-20T19:22:39.322Z,0.80
2022-11-20T19:24:43.368Z,0.57
2022-11-20T19:26:56.891Z,0.65
2022-11-20T19:28:58.750Z,0.70
2022-11-20T19:31:24.779Z,0.70
2022-11-20T19:35:58.754Z,0.77
2022-11-20T19:38:06.383Z,0.80
2022-11-20T19:40:10.485Z,0.95
2022-11-20T19:42:12.229Z,1.20
2022-11-20T19:44:35.290Z,1.33
2022-11-20T19:46:51.426Z,1.75
2022-11-20T19:48:53.411Z,2.50
2022-11-20T19:50:57.917Z,1.10
2022-11-20T19:53:07.979Z,1.33
2022-11-20T19:55:10.236Z,1.58
2022-11-20T19:57:20.770Z,1.50
2022-11-20T19:59:31.093Z,1.10
2022-11-20T20:01:35.424Z,1.50
2022-11-20T20:03:46.680Z,1.48
2022-11-20T20:05:53.898Z,1.30
2022-11-20T20:07:55.334Z,1.30
2022-11-20T20:09:56.726Z,1.23
2022-11-20T20:12:08.734Z,1.20
2022-11-20T20:14:16.896Z,1.10
2022-11-20T20:16:25.078Z,1.20
2022-11-20T20:18:28.413Z,1.10
2022-11-20T20:20:35.805Z,1.20
2022-11-20T20:22:37.209Z,1.40
2022-11-20T20:24:44.391Z,1.25
2022-11-20T20:27:01.953Z,1.10
2022-11-20T20:29:09.359Z,1.33
2022-11-20T20:31:12.040Z,1.30
2022-11-20T20:33:14.453Z,1.58
2022-11-20T20:35:17.994Z,1.83
2022-11-20T20:37:19.287Z,1.48
2022-11-20T20:39:21.318Z,1.60
2022-11-20T20:41:33.272Z,1.88
2022-11-20T20:44:01.303Z,1.60
2022-11-20T20:46:18.017Z,1.63
2022-11-20T20:48:20.627Z,1.35
2022-11-20T20:50:27.969Z,1.38
2022-11-20T20:55:03.731Z,1.67
2022-11-20T20:57:05.145Z,1.42
2022-11-20T20:59:06.762Z,1.40
2022-11-20T21:01:15.127Z,1.25
2022-11-20T21:03:19.552Z,1.60
2022-11-20T21:05:25.264Z,1.30
2022-11-20T21:07:26.841Z,1.30
2022-11-20T21:09:28.438Z,1.10
2022-11-20T21:11:32.690Z,1.05
2022-11-20T21:13:43.486Z,1.00
2022-11-20T21:15:51.475Z,0.98
2022-11-20T21:17:52.919Z,0.90
2022-11-20T21:19:54.326Z,0.55
2022-11-20T21:22:07.960Z,0.57
2022-11-20T21:24:09.448Z,0.50
2022-11-20T21:26:17.739Z,0.90
2022-11-20T21:28:22.354Z,0.50
2022-11-20T21:30:23.779Z,0.50
2022-11-20T21:32:33.596Z,0.50
2022-11-20T21:34:38.085Z,0.50
2022-11-20T21:36:39.632Z,0.50
2022-11-20T21:38:41.240Z,1.55
2022-11-20T21:40:42.646Z,0.60
2022-11-20T21:42:49.702Z,1.73
2022-11-20T21:44:51.057Z,0.80
2022-11-20T21:46:52.658Z,0.90
2022-11-20T21:49:12.680Z,1.80
2022-11-20T21:51:30.119Z,0.70
2022-11-20T21:53:39.767Z,0.52
2022-11-20T21:55:41.201Z,0.65
2022-11-20T21:57:59.437Z,0.50
2022-11-20T22:00:26.226Z,0.75
2022-11-20T22:02:30.855Z,0.60
2022-11-20T22:04:32.192Z,0.90
2022-11-20T22:06:46.084Z,0.70
2022-11-20T22:08:48.704Z,0.57
2022-11-20T22:11:13.970Z,0.60
2022-11-20T22:13:50.404Z,1.33
2022-11-20T22:16:01.402Z,0.85
2022-11-20T22:18:15.381Z,1.15
2022-11-20T22:20:19.462Z,0.60
2022-11-20T22:22:25.681Z,0.63
2022-11-20T22:24:27.418Z,0.60
2022-11-20T22:26:39.664Z,0.80
2022-11-20T22:29:00.355Z,0.70
2022-11-20T22:31:08.932Z,0.60
2022-11-20T22:33:23.955Z,0.85
2022-11-20T22:35:28.473Z,0.70
2022-11-20T22:37:29.867Z,0.90
2022-11-20T22:39:31.334Z,0.60
2022-11-20T22:41:34.411Z,0.90
2022-11-20T22:43:42.478Z,0.65
2022-11-20T22:45:46.760Z,0.65
2022-11-20T22:47:58.926Z,0.60
2022-11-20T22:50:11.322Z,0.82
2022-11-20T22:52:12.696Z,0.82
2022-11-20T22:54:20.001Z,0.88
2022-11-20T22:56:33.041Z,0.80
2022-11-20T22:58:35.588Z,0.80
2022-11-20T23:00:37.975Z,0.60
2022-11-20T23:02:43.833Z,0.60
2022-11-20T23:04:45.201Z,0.63
2022-11-20T23:06:49.474Z,0.50
2022-11-20T23:11:17.913Z,0.68
2022-11-20T23:13:19.433Z,0.60
2022-11-20T23:15:20.891Z,0.80
2022-11-20T23:17:28.285Z,0.75
2022-11-20T23:19:30.609Z,0.70
2022-11-20T23:21:35.817Z,0.88
2022-11-20T23:23:37.134Z,0.70
2022-11-20T23:25:44.364Z,1.30
2022-11-20T23:27:45.746Z,0.50
2022-11-20T23:29:50.356Z,0.65
2022-11-20T23:31:51.775Z,0.90
2022-11-20T23:33:55.220Z,0.80
2022-11-20T23:35:59.471Z,0.90
2022-11-20T23:38:00.819Z,0.82
2022-11-20T23:40:05.839Z,0.88
2022-11-20T23:42:07.283Z,0.70
2022-11-20T23:44:15.940Z,0.90
2022-11-20T23:46:20.558Z,1.02
2022-11-20T23:48:25.650Z,1.00
2022-11-20T23:50:27.037Z,0.82
2022-11-20T23:52:38.256Z,0.82
2022-11-20T23:54:48.742Z,1.00
2022-11-20T23:57:00.869Z,1.00
2022-11-20T23:59:11.670Z,0.82
